Time;durP1;ratioP1;P1;durP2;ratioP2;P2;SDS_P1;SDS_P2;PMS_P1;PMS_P2;Temp;Humidity;BMP_temperature;BMP_pressure;BME280_temperature;BME280_humidity;BME280_pressure;Samples;Min_cycle;Max_cycle;Signal;HPM_P1;HPM_P2
2024/03/22 00:00:29;;;;;;;;;;;;;;;8.99;100.00;97181.81;5084994;28;20245;-77
2024/03/22 00:02:55;;;;;;;;;;;;;;;8.94;100.00;97178.94;5087922;28;19932;-73
2024/03/22 00:05:21;;;;;;;;;;;;;;;8.87;100.00;97176.25;5069774;28;19981;-72
2024/03/22 00:07:47;;;;;;;;;;;;;;;8.84;100.00;97166.19;5086998;28;19939;-73
2024/03/22 00:10:13;;;;;;;;;;;;;;;8.81;100.00;97168.38;5087200;28;19942;-72
2024/03/22 00:12:40;;;;;;;;;;;;;;;8.78;100.00;97169.56;5069096;28;19940;-73
2024/03/22 00:15:06;;;;;;;;;;;;;;;8.74;100.00;97169.13;5087452;28;19941;-73
2024/03/22 00:17:33;;;;;;;;;;;;;;;8.73;100.00;97171.91;5069071;28;19939;-71
2024/03/22 00:19:59;;;;;;;;;;;;;;;8.70;100.00;97170.47;5086807;28;20128;-74
2024/03/22 00:22:25;;;;;;;;;;;;;;;8.69;100.00;97168.88;5087566;28;19934;-77
2024/03/22 00:24:51;;;;;;;;;;;;;;;8.66;100.00;97156.16;5086772;28;19938;-76
2024/03/22 00:27:17;;;;;;;;;;;;;;;8.61;100.00;97158.56;5086914;28;19942;-77
2024/03/22 00:29:43;;;;;;;;;;;;;;;8.58;100.00;97158.91;5086630;28;20008;-77
2024/03/22 00:32:09;;;;;;;;;;;;;;;8.53;100.00;97150.84;5087137;28;19948;-77
2024/03/22 00:34:35;;;;;;;;;;;;;;;8.50;100.00;97156.41;5086579;28;19943;-76
2024/03/22 00:37:01;;;;;;;;;;;;;;;8.46;100.00;97156.00;5086609;28;19936;-72
2024/03/22 00:39:27;;;;;;;;;;;;;;;8.43;100.00;97155.56;5086569;28;19936;-71
2024/03/22 00:41:53;;;;;;;;;;;;;;;8.41;100.00;97158.34;5068405;28;19974;-71
2024/03/22 00:44:18;;;;;;;;;;;;;;;8.37;100.00;97149.22;5086413;28;19938;-71
2024/03/22 00:46:44;;;;;;;;;;;;;;;8.31;100.00;97150.78;5086351;28;19937;-71
2024/03/22 00:49:10;;;;;;;;;;;;;;;8.27;100.00;97136.50;5086338;28;19942;-71
2024/03/22 00:51:36;;;;;;;;;;;;;;;8.23;100.00;97135.25;5086050;28;19967;-71
2024/03/22 00:54:02;;;;;;;;;;;;;;;8.22;100.00;97136.22;5069167;28;19941;-73
2024/03/22 00:56:28;;;;;;;;;;;;;;;8.19;100.00;97136.59;5086323;28;19966;-71
2024/03/22 00:58:54;;;;;;;;;;;;;;;8.17;100.00;97135.97;5086968;28;19966;-73
2024/03/22 01:01:19;;;;;;;;;;;;;;;8.13;100.00;97125.09;5086374;28;19935;-73
2024/03/22 01:03:45;;;;;;;;;;;;;;;8.11;100.00;97123.66;5068974;28;20238;-72
2024/03/22 01:06:11;;;;;;;;;;;;;;;8.07;100.00;97110.16;5086548;28;19931;-72
2024/03/22 01:08:37;;;;;;;;;;;;;;;8.05;100.00;97111.34;5085875;28;19955;-72
2024/03/22 01:11:03;;;;;;;;;;;;;;;7.98;100.00;97106.03;5067900;28;19962;-72
2024/03/22 01:13:28;;;;;;;;;;;;;;;7.97;100.00;97111.44;5068266;28;20006;-72
2024/03/22 01:15:54;;;;;;;;;;;;;;;7.92;100.00;97114.63;5086638;28;20006;-71
2024/03/22 01:18:20;;;;;;;;;;;;;;;7.89;100.00;97112.34;5068048;28;19938;-72
2024/03/22 01:20:46;;;;;;;;;;;;;;;7.85;100.00;97111.09;5051945;28;19948;-71
2024/03/22 01:23:12;;;;;;;;;;;;;;;7.81;100.00;97108.06;5085643;28;19934;-71
2024/03/22 01:25:38;;;;;;;;;;;;;;;7.77;100.00;97101.59;5067850;28;19967;-71
2024/03/22 01:28:04;;;;;;;;;;;;;;;7.73;100.00;97101.16;5085592;28;19942;-71
2024/03/22 01:30:30;;;;;;;;;;;;;;;7.70;100.00;97100.69;5068365;28;19948;-71
2024/03/22 01:32:56;;;;;;;;;;;;;;;7.69;100.00;97096.47;5067777;28;19940;-76
2024/03/22 01:35:21;;;;;;;;;;;;;;;7.66;100.00;97089.81;5085713;28;19939;-70
2024/03/22 01:37:47;;;;;;;;;;;;;;;7.66;100.00;97089.00;5067419;28;19995;-71
2024/03/22 01:40:14;;;;;;;;;;;;;;;7.65;100.00;97095.22;5067381;28;19993;-70
2024/03/22 01:42:39;;;;;;;;;;;;;;;7.65;100.00;97096.03;5085164;28;20167;-71
2024/03/22 01:45:05;;;;;;;;;;;;;;;7.65;100.00;97092.63;5085539;28;19937;-71
2024/03/22 01:47:31;;;;;;;;;;;;;;;7.64;100.00;97089.22;5085640;28;19992;-71
2024/03/22 01:49:57;;;;;;;;;;;;;;;7.64;100.00;97083.97;5085926;28;20200;-72
2024/03/22 01:52:24;;;;;;;;;;;;;;;7.63;100.00;97081.56;5068028;28;19954;-78
2024/03/22 01:54:50;;;;;;;;;;;;;;;7.61;100.00;97083.53;5085028;28;19940;-78
2024/03/22 01:57:15;;;;;;;;;;;;;;;7.58;100.00;97082.09;5085052;28;20155;-74
2024/03/22 01:59:42;;;;;;;;;;;;;;;7.56;100.00;97080.66;5085719;28;20233;-77
2024/03/22 02:02:08;;;;;;;;;;;;;;;7.52;100.00;97075.00;5084060;28;20132;-80
2024/03/22 02:04:34;;;;;;;;;;;;;;;7.48;100.00;97077.16;5085447;28;19942;-82
2024/03/22 02:07:00;;;;;;;;;;;;;;;7.47;100.00;97074.72;5084922;28;20243;-77
2024/03/22 02:09:26;;;;;;;;;;;;;;;7.45;100.00;97068.88;5084773;28;19950;-77
2024/03/22 02:11:52;;;;;;;;;;;;;;;7.42;100.00;97064.84;5067554;28;20257;-71
2024/03/22 02:14:18;;;;;;;;;;;;;;;7.41;100.00;97062.41;5084670;28;19935;-71
2024/03/22 02:16:45;;;;;;;;;;;;;;;7.38;100.00;97057.56;5067519;28;19937;-71
2024/03/22 02:19:11;;;;;;;;;;;;;;;7.36;100.00;97065.56;5084521;28;19956;-71
2024/03/22 02:21:37;;;;;;;;;;;;;;;7.30;100.00;97056.66;5084548;28;20023;-72
2024/03/22 02:24:03;;;;;;;;;;;;;;;7.25;100.00;97055.59;5066768;28;19978;-71
2024/03/22 02:26:28;;;;;;;;;;;;;;;7.20;100.00;97057.94;5066823;28;19932;-71
2024/03/22 02:28:54;;;;;;;;;;;;;;;7.15;100.00;97045.44;5085208;28;19931;-71
2024/03/22 02:31:20;;;;;;;;;;;;;;;7.10;100.00;97059.03;5084340;28;20010;-71
2024/03/22 02:33:46;;;;;;;;;;;;;;;7.09;100.00;97053.97;5084301;28;19997;-70
2024/03/22 02:36:12;;;;;;;;;;;;;;;7.06;100.00;97060.38;5084819;28;19956;-70
2024/03/22 02:38:38;;;;;;;;;;;;;;;7.04;100.00;97059.75;5084179;28;20077;-72
2024/03/22 02:41:04;;;;;;;;;;;;;;;7.05;100.00;97060.53;5083679;28;19937;-72
2024/03/22 02:43:29;;;;;;;;;;;;;;;7.03;100.00;97060.72;5085029;28;19973;-72
2024/03/22 02:45:55;;;;;;;;;;;;;;;7.02;100.00;97053.91;5067115;28;19941;-72
2024/03/22 02:48:21;;;;;;;;;;;;;;;7.03;100.00;97052.09;5084708;28;19935;-69
2024/03/22 02:50:47;;;;;;;;;;;;;;;7.03;100.00;97055.50;5084209;28;19990;-70
2024/03/22 02:53:13;;;;;;;;;;;;;;;7.01;100.00;97057.47;5084119;28;19982;-70
2024/03/22 02:55:39;;;;;;;;;;;;;;;6.99;100.00;97056.88;5084570;28;20015;-70
2024/03/22 02:58:09;;;;;;;;;;;;;;;6.97;100.00;97047.59;5084073;28;19936;-69
2024/03/22 03:00:38;;;;;;;;;;;;;;;6.93;100.00;97034.13;5083999;28;19936;-70
2024/03/22 03:03:07;;;;;;;;;;;;;;;6.92;100.00;97035.09;5066225;28;20243;-79
2024/03/22 03:05:34;;;;;;;;;;;;;;;6.89;100.00;97041.50;5084446;28;19938;-71
2024/03/22 03:08:00;;;;;;;;;;;;;;;6.88;100.00;97036.44;5050073;28;19960;-73
2024/03/22 03:10:26;;;;;;;;;;;;;;;6.87;100.00;97042.66;5083887;28;19937;-73
2024/03/22 03:12:54;;;;;;;;;;;;;;;6.88;100.00;97039.84;5084047;28;20303;-73
2024/03/22 03:15:20;;;;;;;;;;;;;;;6.90;100.00;97039.69;5065845;28;19934;-72
2024/03/22 03:17:46;;;;;;;;;;;;;;;6.92;100.00;97040.31;5084587;28;20001;-72
2024/03/22 03:20:13;;;;;;;;;;;;;;;6.94;100.00;97043.56;5084077;28;19934;-72
2024/03/22 03:22:39;;;;;;;;;;;;;;;6.97;100.00;97043.22;5084602;28;19987;-74
2024/03/22 03:25:06;;;;;;;;;;;;;;;6.97;100.00;97035.38;5083794;28;19955;-77
2024/03/22 03:27:31;;;;;;;;;;;;;;;6.98;100.00;97038.78;5084277;28;19932;-76
2024/03/22 03:29:57;;;;;;;;;;;;;;;6.98;100.00;97029.16;5083697;28;19939;-75
2024/03/22 03:32:24;;;;;;;;;;;;;;;6.98;100.00;97023.16;5065908;28;19956;-76
2024/03/22 03:34:50;;;;;;;;;;;;;;;7.00;100.00;97021.16;5084294;28;20120;-76
2024/03/22 03:37:16;;;;;;;;;;;;;;;7.02;100.00;97019.19;5088610;28;19941;-75
2024/03/22 03:39:42;;;;;;;;;;;;;;;7.02;100.00;97020.00;5069807;28;19942;-71
2024/03/22 03:42:08;;;;;;;;;;;;;;;7.03;100.00;97016.38;5070081;28;19967;-71
2024/03/22 03:44:34;;;;;;;;;;;;;;;7.04;100.00;97010.19;5087618;28;20004;-78
2024/03/22 03:47:00;;;;;;;;;;;;;;;7.05;100.00;97011.78;5087559;28;19946;-78
2024/03/22 03:49:26;;;;;;;;;;;;;;;7.07;100.00;97011.63;5087770;28;19935;-78
2024/03/22 03:51:51;;;;;;;;;;;;;;;7.06;100.00;97010.03;5087497;28;19962;-78
2024/03/22 03:54:17;;;;;;;;;;;;;;;7.08;100.00;97005.44;5087400;28;19938;-77
2024/03/22 03:56:43;;;;;;;;;;;;;;;7.07;100.00;96996.78;5087323;28;20020;-76
2024/03/22 03:59:09;;;;;;;;;;;;;;;7.05;100.00;97003.97;5087289;28;19943;-71
2024/03/22 04:01:35;;;;;;;;;;;;;;;7.06;100.00;97007.41;5087739;28;19931;-70
2024/03/22 04:04:01;;;;;;;;;;;;;;;7.05;100.00;97005.78;5070036;28;19937;-70
2024/03/22 04:06:27;;;;;;;;;;;;;;;7.03;100.00;97003.34;5069346;28;19936;-70
2024/03/22 04:08:53;;;;;;;;;;;;;;;7.02;100.00;96995.72;5052925;28;19962;-70
2024/03/22 04:11:19;;;;;;;;;;;;;;;7.01;100.00;97000.09;5087513;28;20237;-70
2024/03/22 04:13:45;;;;;;;;;;;;;;;7.00;100.00;97001.09;5086999;28;19937;-70
2024/03/22 04:16:11;;;;;;;;;;;;;;;7.00;100.00;96993.28;5069050;28;19965;-70
2024/03/22 04:18:36;;;;;;;;;;;;;;;7.01;100.00;96991.47;5069927;28;19981;-71
2024/03/22 04:21:02;;;;;;;;;;;;;;;7.02;100.00;96993.13;5069707;28;19938;-72
2024/03/22 04:23:28;;;;;;;;;;;;;;;7.04;100.00;96993.75;5052361;28;20010;-72
2024/03/22 04:26:02;;;;;;;;;;;;;;;7.05;100.00;96990.13;5087264;28;19934;-72
2024/03/22 04:28:28;;;;;;;;;;;;;;;7.05;100.00;96987.53;5087567;28;19946;-72
2024/03/22 04:31:02;;;;;;;;;;;;;;;7.05;100.00;96996.16;5085962;28;19970;-72
2024/03/22 04:33:28;;;;;;;;;;;;;;;7.06;100.00;96997.78;5086663;28;20239;-71
2024/03/22 04:35:54;;;;;;;;;;;;;;;7.07;100.00;96996.78;5086655;28;19937;-71
2024/03/22 04:38:20;;;;;;;;;;;;;;;7.09;100.00;97000.00;5086554;28;19940;-76
2024/03/22 04:40:46;;;;;;;;;;;;;;;7.09;100.00;96997.41;5086514;28;19976;-76
2024/03/22 04:43:12;;;;;;;;;;;;;;;7.11;100.00;97000.63;5086359;28;19965;-76
2024/03/22 04:45:38;;;;;;;;;;;;;;;7.13;100.00;97000.47;5086301;28;19941;-81
2024/03/22 04:48:04;;;;;;;;;;;;;;;7.13;100.00;96995.25;5085448;28;19972;-79
2024/03/22 04:50:31;;;;;;;;;;;;;;;7.14;100.00;96994.28;5086338;28;19941;-81
2024/03/22 04:52:57;;;;;;;;;;;;;;;7.14;100.00;96991.66;5086532;28;19963;-78
2024/03/22 04:55:23;;;;;;;;;;;;;;;7.12;100.00;96993.66;5086263;28;19936;-76
2024/03/22 04:57:49;;;;;;;;;;;;;;;7.13;100.00;96981.41;5086743;28;19937;-71
2024/03/22 05:00:15;;;;;;;;;;;;;;;7.11;100.00;96989.41;5086941;28;19937;-72
2024/03/22 05:02:41;;;;;;;;;;;;;;;7.09;100.00;96986.97;5086584;28;19936;-72
2024/03/22 05:05:09;;;;;;;;;;;;;;;7.08;100.00;96987.97;5086045;28;19983;-72
2024/03/22 05:07:35;;;;;;;;;;;;;;;7.08;100.00;96984.56;5085991;28;20130;-72
2024/03/22 05:10:03;;;;;;;;;;;;;;;7.08;100.00;96989.78;5086748;28;19938;-72
2024/03/22 05:12:29;;;;;;;;;;;;;;;7.08;100.00;96993.19;5085903;28;19971;-70
2024/03/22 05:14:55;;;;;;;;;;;;;;;7.10;100.00;97001.63;5085948;28;19952;-73
2024/03/22 05:17:21;;;;;;;;;;;;;;;7.10;100.00;96998.22;5086653;28;19938;-73
2024/03/22 05:19:47;;;;;;;;;;;;;;;7.11;100.00;96994.63;5068581;28;20319;-73
2024/03/22 05:22:12;;;;;;;;;;;;;;;7.11;100.00;96995.41;5086300;28;19950;-73
2024/03/22 05:24:38;;;;;;;;;;;;;;;7.12;100.00;96998.84;5067910;28;20222;-74
2024/03/22 05:27:04;;;;;;;;;;;;;;;7.11;100.00;96989.41;5085645;28;19942;-73
2024/03/22 05:29:30;;;;;;;;;;;;;;;7.13;100.00;96984.00;5085887;28;19939;-73
2024/03/22 05:31:57;;;;;;;;;;;;;;;7.14;100.00;96985.63;5086059;28;19966;-72
2024/03/22 05:34:22;;;;;;;;;;;;;;;7.14;100.00;96988.22;5086318;28;19945;-71
2024/03/22 05:36:48;;;;;;;;;;;;;;;7.13;100.00;96987.41;5067726;28;19948;-72
2024/03/22 05:39:14;;;;;;;;;;;;;;;7.15;100.00;96984.63;5085972;28;19932;-71
2024/03/22 05:41:40;;;;;;;;;;;;;;;7.17;100.00;96978.25;5085149;28;20172;-72
2024/03/22 05:44:07;;;;;;;;;;;;;;;7.17;100.00;96977.44;5067424;28;20015;-72
2024/03/22 05:46:33;;;;;;;;;;;;;;;7.19;100.00;96973.66;5085250;28;19933;-72
2024/03/22 05:48:58;;;;;;;;;;;;;;;7.20;100.00;96964.03;5085454;28;19942;-74
2024/03/22 05:51:25;;;;;;;;;;;;;;;7.22;100.00;96959.44;5067819;28;19986;-73
2024/03/22 05:53:51;;;;;;;;;;;;;;;7.23;100.00;96964.47;5085576;28;19940;-70
2024/03/22 05:56:16;;;;;;;;;;;;;;;7.30;100.00;96967.16;5085043;28;19935;-70
2024/03/22 05:58:42;;;;;;;;;;;;;;;7.57;100.00;96962.22;5085133;28;19939;-70
2024/03/22 06:01:08;;;;;;;;;;;;;;;7.91;100.00;96961.50;5085482;28;19937;-70
2024/03/22 06:03:34;;;;;;;;;;;;;;;8.01;100.00;96941.09;5085460;28;19967;-70
2024/03/22 06:06:00;;;;;;;;;;;;;;;8.00;100.00;96938.69;5067129;28;19935;-71
2024/03/22 06:08:26;;;;;;;;;;;;;;;8.08;100.00;96939.38;5084815;28;19958;-74
2024/03/22 06:10:52;;;;;;;;;;;;;;;8.36;100.00;96929.88;5085299;28;20219;-74
2024/03/22 06:13:18;;;;;;;;;;;;;;;8.57;100.00;96922.00;5085477;28;19951;-75
2024/03/22 06:15:47;;;;;;;;;;;;;;;8.87;100.00;96913.91;5084893;28;19936;-74
2024/03/22 06:18:12;;;;;;;;;;;;;;;9.13;100.00;96908.78;5066829;28;20219;-74
2024/03/22 06:20:38;;;;;;;;;;;;;;;9.44;100.00;96902.19;5085096;28;19950;-75
2024/03/22 06:23:04;;;;;;;;;;;;;;;9.85;100.00;96895.16;5084558;28;19937;-74
2024/03/22 06:25:30;;;;;;;;;;;;;;;10.26;100.00;96881.00;5066744;28;20138;-75
2024/03/22 06:27:56;;;;;;;;;;;;;;;10.62;100.00;96869.25;5084415;28;20004;-71
2024/03/22 06:30:22;;;;;;;;;;;;;;;10.85;100.00;96847.75;5084928;28;20006;-78
2024/03/22 06:32:47;;;;;;;;;;;;;;;10.77;100.00;96847.00;5084265;28;19957;-79
2024/03/22 06:35:13;;;;;;;;;;;;;;;10.74;100.00;96842.16;5084328;28;19966;-79
2024/03/22 06:37:40;;;;;;;;;;;;;;;10.81;100.00;96849.19;5084309;28;20002;-80
2024/03/22 06:40:06;;;;;;;;;;;;;;;10.91;100.00;96847.72;5084263;28;19941;-79
2024/03/22 06:42:32;;;;;;;;;;;;;;;11.11;100.00;96836.31;5084177;28;19963;-82
2024/03/22 06:44:58;;;;;;;;;;;;;;;11.36;100.00;96839.78;5084205;28;19944;-78
2024/03/22 06:47:24;;;;;;;;;;;;;;;11.57;97.99;96819.44;5084239;28;19944;-70
2024/03/22 06:49:49;;;;;;;;;;;;;;;11.68;99.25;96828.44;5066309;28;19945;-70
2024/03/22 06:52:16;;;;;;;;;;;;;;;11.78;97.09;96813.00;5084042;28;19950;-70
2024/03/22 06:54:41;;;;;;;;;;;;;;;11.85;98.25;96818.97;5084558;28;19940;-70
2024/03/22 06:57:07;;;;;;;;;;;;;;;11.91;97.64;96812.88;5084814;28;19940;-70
2024/03/22 06:59:33;;;;;;;;;;;;;;;11.81;97.47;96822.25;5066257;28;19939;-71
2024/03/22 07:01:59;;;;;;;;;;;;;;;11.77;98.53;96824.50;5084760;28;19977;-71
2024/03/22 07:04:25;;;;;;;;;;;;;;;11.78;98.19;96828.75;5049741;28;19975;-79
2024/03/22 07:06:51;;;;;;;;;;;;;;;11.74;98.83;96833.63;5083951;28;19944;-72
2024/03/22 07:09:16;;;;;;;;;;;;;;;11.86;98.73;96825.81;5066454;28;19955;-72
2024/03/22 07:11:43;;;;;;;;;;;;;;;11.99;98.74;96832.84;5084100;28;20212;-73
2024/03/22 07:14:08;;;;;;;;;;;;;;;12.10;97.31;96826.06;5083901;28;19946;-72
2024/03/22 07:16:36;;;;;;;;;;;;;;;12.21;98.56;96824.53;5083839;28;20156;-72
2024/03/22 07:19:03;;;;;;;;;;;;;;;12.36;96.79;96809.97;5083861;28;19941;-72
2024/03/22 07:21:29;;;;;;;;;;;;;;;12.42;94.80;96796.97;5083873;28;20109;-77
2024/03/22 07:23:55;;;;;;;;;;;;;;;12.30;95.21;96805.59;5083750;28;19944;-73
2024/03/22 07:26:21;;;;;;;;;;;;;;;12.26;95.10;96801.00;5083764;28;19941;-72
2024/03/22 07:28:47;;;;;;;;;;;;;;;12.25;95.33;96804.66;5083782;28;19946;-73
2024/03/22 07:31:13;;;;;;;;;;;;;;;12.27;96.78;96805.25;5084228;28;19940;-73
2024/03/22 07:33:39;;;;;;;;;;;;;;;12.37;95.88;96795.03;5083608;28;19964;-72
2024/03/22 07:36:05;;;;;;;;;;;;;;;12.43;96.09;96804.66;5083630;28;19945;-73
2024/03/22 07:38:31;;;;;;;;;;;;;;;12.47;95.88;96808.44;5065834;28;19964;-73
2024/03/22 07:40:57;;;;;;;;;;;;;;;12.70;100.00;96883.25;5083413;28;20226;-73
2024/03/22 07:43:23;;;;;;;;;;;;;;;13.00;94.75;96784.06;5049923;28;19967;-71
2024/03/22 07:45:49;;;;;;;;;;;;;;;12.88;92.85;96782.44;5083587;28;19955;-72
2024/03/22 07:48:15;;;;;;;;;;;;;;;12.88;93.14;96785.84;5066357;28;19937;-72
2024/03/22 07:50:41;;;;;;;;;;;;;;;12.88;92.54;96774.53;5083555;28;19943;-73
2024/03/22 07:53:08;;;;;;;;;;;;;;;12.73;94.04;96783.63;5083503;28;19954;-72
2024/03/22 07:55:33;;;;;;;;;;;;;;;12.59;94.38;96792.72;5066307;28;20080;-72
2024/03/22 07:57:59;;;;;;;;;;;;;;;12.47;95.21;96791.84;5083427;28;19943;-75
2024/03/22 08:00:25;;;;;;;;;;;;;;;12.30;96.74;96805.59;5049093;28;19941;-72
2024/03/22 08:02:51;;;;;;;;;;;;;;;12.42;98.71;96818.81;5083367;28;20232;-72
2024/03/22 08:05:17;;;;;;;;;;;;;;;12.57;98.32;96808.72;5065946;28;19950;-72
2024/03/22 08:07:43;;;;;;;;;;;;;;;12.84;97.51;96799.69;5065532;28;19934;-73
2024/03/22 08:10:09;;;;;;;;;;;;;;;13.02;94.45;96785.66;5065537;28;19961;-72
2024/03/22 08:12:35;;;;;;;;;;;;;;;13.11;95.05;96800.13;5065931;28;19960;-73
2024/03/22 08:15:02;;;;;;;;;;;;;;;13.07;92.88;96783.97;5083238;28;19942;-72
2024/03/22 08:17:28;;;;;;;;;;;;;;;13.25;96.27;96796.28;5065429;28;20215;-72
2024/03/22 08:19:54;;;;;;;;;;;;;;;13.40;93.86;96787.97;5065716;28;19962;-72
2024/03/22 08:22:20;;;;;;;;;;;;;;;13.52;91.98;96775.63;5084514;28;19942;-72
2024/03/22 08:24:45;;;;;;;;;;;;;;;13.67;93.32;96785.72;5069584;28;19982;-72
2024/03/22 08:27:12;;;;;;;;;;;;;;;13.97;90.51;96766.31;5052414;28;19971;-72
2024/03/22 08:29:38;;;;;;;;;;;;;;;14.05;92.10;96765.97;5087270;28;20097;-72
2024/03/22 08:32:04;;;;;;;;;;;;;;;13.99;90.97;96759.78;5087165;28;19941;-72
2024/03/22 08:34:31;;;;;;;;;;;;;;;14.08;90.91;96746.22;5087008;28;19940;-72
2024/03/22 08:36:57;;;;;;;;;;;;;;;14.16;91.78;96748.50;5087208;28;20242;-74
2024/03/22 08:39:24;;;;;;;;;;;;;;;14.18;92.37;96744.59;5069463;28;19966;-71
2024/03/22 08:41:51;;;;;;;;;;;;;;;14.27;93.37;96752.94;5086305;28;20252;-72
2024/03/22 08:44:16;;;;;;;;;;;;;;;14.41;91.60;96735.81;5051942;28;19968;-72
2024/03/22 08:46:42;;;;;;;;;;;;;;;14.45;90.18;96724.78;5069130;28;19937;-73
2024/03/22 08:49:08;;;;;;;;;;;;;;;14.58;90.03;96730.63;5068556;28;19941;-72
2024/03/22 08:51:34;;;;;;;;;;;;;;;14.73;90.75;96731.94;5086347;28;19934;-73
2024/03/22 08:54:00;;;;;;;;;;;;;;;15.01;89.92;96726.63;5068442;28;19955;-78
2024/03/22 08:56:26;;;;;;;;;;;;;;;15.31;87.44;96703.56;5086775;28;19931;-74
2024/03/22 08:58:52;;;;;;;;;;;;;;;15.37;86.05;96692.84;5086982;28;19945;-74
2024/03/22 09:01:18;;;;;;;;;;;;;;;15.39;85.44;96693.41;5069301;28;19939;-74
2024/03/22 09:03:47;;;;;;;;;;;;;;;15.35;84.39;96678.25;5068887;28;19941;-74
2024/03/22 09:06:13;;;;;;;;;;;;;;;15.32;84.97;96681.38;5086607;28;19941;-74
2024/03/22 09:08:38;;;;;;;;;;;;;;;15.38;83.94;96680.41;5086252;28;19955;-74
2024/03/22 09:11:04;;;;;;;;;;;;;;;15.49;85.55;96679.50;5086009;28;19949;-73
2024/03/22 09:13:30;;;;;;;;;;;;;;;15.68;87.91;96690.59;5085861;28;19951;-72
2024/03/22 09:15:59;;;;;;;;;;;;;;;15.86;82.07;96647.25;5068878;28;20240;-74
2024/03/22 09:18:26;;;;;;;;;;;;;;;15.89;84.38;96673.19;5028171;28;19944;-74
2024/03/22 09:20:54;;;;;;;;;;;;;;;15.97;84.55;96678.03;5027423;28;19944;-73
2024/03/22 09:23:20;;;;;;;;;;;;;;;16.11;81.50;96659.16;5044160;28;20225;-74
2024/03/22 09:25:47;;;;;;;;;;;;;;;16.21;82.26;96662.72;5027518;28;19942;-74
2024/03/22 09:28:13;;;;;;;;;;;;;;;16.33;80.93;96645.88;5044090;28;20128;-74
2024/03/22 09:30:43;;;;;;;;;;;;;;;16.23;81.12;96649.22;5043991;28;19947;-74
2024/03/22 09:33:09;;;;;;;;;;;;;;;16.16;81.50;96652.06;5026825;28;19970;-74
2024/03/22 09:35:35;;;;;;;;;;;;;;;16.19;84.23;96661.34;5044362;28;19938;-74
2024/03/22 09:38:02;;;;;;;;;;;;;;;16.27;81.00;96662.75;5044158;28;20117;-74
2024/03/22 09:40:28;;;;;;;;;;;;;;;16.36;80.07;96683.25;5044195;28;20223;-74
2024/03/22 09:42:59;;;;;;;;;;;;;;;16.44;82.92;96693.41;5027100;28;19983;-74
2024/03/22 09:45:25;;;;;;;;;;;;;;;16.47;80.24;96678.84;5026987;28;20244;-74
2024/03/22 09:47:53;;;;;;;;;;;;;;;16.58;79.90;96685.06;5044014;28;20089;-74
2024/03/22 09:50:18;;;;;;;;;;;;;;;16.70;77.90;96674.31;5058476;28;19941;-74
2024/03/22 09:52:45;;;;;;;;;;;;;;;16.93;76.43;96670.56;5064645;28;20196;-74
2024/03/22 09:55:10;;;;;;;;;;;;;;;16.89;76.37;96677.44;5064674;28;19946;-75
2024/03/22 09:57:38;;;;;;;;;;;;;;;16.86;76.30;96675.25;5064995;28;20127;-75
2024/03/22 10:00:07;;;;;;;;;;;;;;;17.06;76.39;96678.09;5065442;28;19935;-74
2024/03/22 10:02:33;;;;;;;;;;;;;;;17.17;71.70;96663.84;5064837;28;20214;-75
2024/03/22 10:04:59;;;;;;;;;;;;;;;17.23;70.06;96657.53;5065083;28;19938;-75
2024/03/22 10:07:25;;;;;;;;;;;;;;;17.11;70.63;96666.72;5065624;28;20108;-72
2024/03/22 10:09:51;;;;;;;;;;;;;;;16.99;72.83;96674.88;5064741;28;19968;-78
2024/03/22 10:12:17;;;;;;;;;;;;;;;16.94;70.43;96653.59;5064931;28;19936;-79
2024/03/22 10:14:43;;;;;;;;;;;;;;;16.99;76.64;96677.50;5064168;28;20092;-79
2024/03/22 10:17:10;;;;;;;;;;;;;;;17.11;71.09;96662.22;5063340;28;19949;-79
2024/03/22 10:19:35;;;;;;;;;;;;;;;17.30;72.19;96667.91;5063311;28;19952;-79
2024/03/22 10:22:02;;;;;;;;;;;;;;;17.65;73.59;96663.88;5065321;28;19944;-79
2024/03/22 10:24:28;;;;;;;;;;;;;;;18.00;68.83;96657.19;5065099;28;19963;-74
2024/03/22 10:26:54;;;;;;;;;;;;;;;18.17;68.54;96655.09;5046718;28;20184;-73
2024/03/22 10:29:22;;;;;;;;;;;;;;;18.36;64.84;96650.09;5064403;28;19971;-73
2024/03/22 10:31:55;;;;;;;;;;;;;;;18.53;65.47;96663.16;5063265;28;20103;-73
2024/03/22 10:34:21;;;;;;;;;;;;;;;18.64;65.60;96674.59;5064089;28;20153;-73
2024/03/22 10:36:47;;;;;;;;;;;;;;;18.81;64.44;96677.03;5064285;28;19937;-73
2024/03/22 10:39:15;;;;;;;;;;;;;;;18.76;69.20;96680.44;5063233;28;20127;-73
2024/03/22 10:41:41;;;;;;;;;;;;;;;18.62;59.75;96666.09;5071399;28;20149;-73
2024/03/22 10:44:08;;;;;;;;;;;;;;;18.45;63.96;96668.97;5066946;28;19941;-79
2024/03/22 10:46:34;;;;;;;;;;;;;;;18.34;64.06;96662.84;5083844;28;19956;-73
2024/03/22 10:49:04;;;;;;;;;;;;;;;18.37;63.00;96659.69;5066485;28;19937;-73
2024/03/22 10:51:31;;;;;;;;;;;;;;;18.37;62.53;96656.22;5066797;28;20087;-73
2024/03/22 10:53:58;;;;;;;;;;;;;;;18.53;59.75;96646.41;5066943;28;19954;-74
2024/03/22 10:56:24;;;;;;;;;;;;;;;18.73;61.77;96646.44;5066185;28;19938;-73
2024/03/22 10:58:52;;;;;;;;;;;;;;;18.85;64.47;96654.16;5084512;28;19941;-73
2024/03/22 11:01:25;;;;;;;;;;;;;;;18.84;59.75;96631.34;5084074;28;20219;-72
2024/03/22 11:03:51;;;;;;;;;;;;;;;18.72;58.71;96638.75;5084028;28;19931;-73
2024/03/22 11:06:20;;;;;;;;;;;;;;;18.49;59.69;96638.19;5050265;28;20231;-74
2024/03/22 11:08:49;;;;;;;;;;;;;;;18.43;60.40;96632.06;5083837;28;19947;-73
2024/03/22 11:11:17;;;;;;;;;;;;;;;18.46;58.52;96628.09;5083974;28;19938;-73
2024/03/22 11:13:43;;;;;;;;;;;;;;;18.42;59.94;96630.47;5065797;28;19979;-74
2024/03/22 11:16:09;;;;;;;;;;;;;;;18.47;61.01;96632.34;5066572;28;19935;-72
2024/03/22 11:18:36;;;;;;;;;;;;;;;18.60;60.04;96621.19;5066682;28;19935;-73
2024/03/22 11:21:03;;;;;;;;;;;;;;;18.60;61.69;96623.84;5084369;28;19939;-74
2024/03/22 11:23:28;;;;;;;;;;;;;;;18.59;59.37;96624.13;5066006;28;19951;-78
2024/03/22 11:25:54;;;;;;;;;;;;;;;18.43;59.18;96616.13;5083756;28;19978;-78
2024/03/22 11:28:20;;;;;;;;;;;;;;;18.39;56.94;96607.09;5084569;28;19941;-79
2024/03/22 11:30:46;;;;;;;;;;;;;;;18.74;58.10;96607.38;5084287;28;19935;-79
2024/03/22 11:33:12;;;;;;;;;;;;;;;18.97;54.03;96596.25;5082670;28;19954;-78
2024/03/22 11:35:38;;;;;;;;;;;;;;;19.25;58.46;96594.84;5066753;28;19936;-79
2024/03/22 11:38:04;;;;;;;;;;;;;;;19.49;54.43;96588.97;5083648;28;19941;-73
2024/03/22 11:40:31;;;;;;;;;;;;;;;19.60;53.18;96585.19;5066531;28;19962;-78
2024/03/22 11:42:57;;;;;;;;;;;;;;;19.28;50.60;96577.59;5065710;28;19975;-74
2024/03/22 11:45:24;;;;;;;;;;;;;;;19.20;55.67;96581.56;5065713;28;20226;-72
2024/03/22 11:47:50;;;;;;;;;;;;;;;19.26;55.94;96575.19;5083739;28;19934;-73
2024/03/22 11:50:16;;;;;;;;;;;;;;;19.57;52.95;96569.78;5083582;28;20133;-72
2024/03/22 11:52:43;;;;;;;;;;;;;;;19.67;51.99;96560.94;5083459;28;19937;-73
2024/03/22 11:55:10;;;;;;;;;;;;;;;19.51;49.07;96554.09;5083522;28;19941;-73
2024/03/22 11:57:36;;;;;;;;;;;;;;;19.32;48.50;96553.88;5069802;28;19946;-73
2024/03/22 12:00:04;;;;;;;;;;;;;;;19.35;50.13;96561.34;5069475;28;20137;-73
2024/03/22 12:02:31;;;;;;;;;;;;;;;19.48;50.81;96552.78;5053554;28;19938;-73
2024/03/22 12:04:57;;;;;;;;;;;;;;;19.68;47.40;96538.59;5086401;28;19956;-73
2024/03/22 12:07:23;;;;;;;;;;;;;;;19.90;49.40;96538.22;5087956;28;20204;-72
2024/03/22 12:09:49;;;;;;;;;;;;;;;19.92;48.53;96528.09;5087595;28;20205;-73
2024/03/22 12:12:15;;;;;;;;;;;;;;;19.97;49.98;96524.59;5069344;28;19999;-73
2024/03/22 12:14:41;;;;;;;;;;;;;;;20.01;47.55;96523.00;5086906;28;19948;-72
2024/03/22 12:17:07;;;;;;;;;;;;;;;20.04;48.15;96515.25;5069040;28;19945;-78
2024/03/22 12:19:33;;;;;;;;;;;;;;;20.14;46.94;96519.72;5087766;28;19941;-72
2024/03/22 12:21:59;;;;;;;;;;;;;;;20.09;48.37;96506.44;5087415;28;19941;-73
2024/03/22 12:24:26;;;;;;;;;;;;;;;20.20;45.46;96502.63;5086844;28;19940;-72
2024/03/22 12:26:53;;;;;;;;;;;;;;;20.15;46.68;96501.88;5069808;28;20211;-72
2024/03/22 12:29:19;;;;;;;;;;;;;;;20.06;48.24;96496.34;5087256;28;20112;-73
2024/03/22 12:31:45;;;;;;;;;;;;;;;20.04;44.65;96491.28;5068754;28;20094;-73
2024/03/22 12:34:11;;;;;;;;;;;;;;;20.06;47.19;96491.81;5052948;28;20001;-72
2024/03/22 12:36:37;;;;;;;;;;;;;;;20.00;45.89;96484.94;5068869;28;20111;-74
2024/03/22 12:39:03;;;;;;;;;;;;;;;20.02;48.06;96485.44;5086540;28;19936;-74